Pagina principale
METAR-TAF:

METAR-TAF

Aeroporti :

Orléans, Francia

latitudine: 47-59N, longitudine: 001-45E, altezza: 126 m

Osservazione

Il bollettino è stato emesso 27 minuti fa, alle 07:00 UTC
Vento 6 kt da nord
Temperature 14°C
Umidità 88%
Pressione 1023 hPa
Visibilità 10 km o più
nessuna nube inferiore a 1500 m e nessun cumulonembo

METAR: LFOJ 200700Z AUTO 01006KT CAVOK 14/12 Q1023 NOSIG

Ora: 09:27 (07:27 UTC)

Previsione

Il bollettino è stato emesso 5 ore e 27 minuti fa, alle 02:00 UTC
Previsione valida dal 20 alle 03 UTC al 21 alle 03 UTC
Vento 5 kt da nord
Visibilità 10 km o più
nessuna nube inferiore a 1500 m e nessun cumulonembo

TAF: LFOJ 200200Z 2003/2103 36005KT CAVOK

Osservazioni e previsioni meteorologiche di più di 4000 aeroporti (messaggi METAR e TAF).

Le stazioni disponibili sono rappresentate dai dischi gialli e rossi sulla carta.

Puntare il mouse per vedere il nome della stazione.

Clicca sopra per visualizzare le osservazioni e previsioni meteorologiche.

Per cambiare la mappa : fare clic sui pulsanti verdi con una croce nera per ingrandire, il pulsante verde con un trattino per diminuire, o sulla freccia verde per le mappe adiacenti.


METAR-TAF: